createdAt,value
2022-08-23T00:02:22.722Z,4.37
2022-08-23T00:05:03.558Z,4.43
2022-08-23T00:07:38.654Z,4.30
2022-08-23T00:10:08.510Z,3.90
2022-08-23T00:12:36.535Z,4.33
2022-08-23T00:15:07.416Z,4.00
2022-08-23T00:17:36.827Z,4.43
2022-08-23T00:20:07.929Z,4.43
2022-08-23T00:22:36.307Z,4.80
2022-08-23T00:25:05.492Z,4.50
2022-08-23T00:27:33.820Z,4.63
2022-08-23T00:30:02.420Z,5.30
2022-08-23T00:32:35.758Z,4.47
2022-08-23T00:35:04.941Z,5.17
2022-08-23T00:37:33.980Z,4.07
2022-08-23T00:40:02.735Z,3.83
2022-08-23T00:42:52.605Z,4.40
2022-08-23T00:45:44.586Z,4.67
2022-08-23T00:48:14.601Z,4.57
2022-08-23T00:50:50.266Z,4.00
2022-08-23T00:53:22.956Z,3.87
2022-08-23T00:55:55.488Z,4.63
2022-08-23T00:58:23.521Z,4.20
2022-08-23T01:00:54.405Z,4.10
2022-08-23T01:03:25.424Z,4.10
2022-08-23T01:06:02.625Z,4.77
2022-08-23T01:08:33.040Z,3.87
2022-08-23T01:11:08.704Z,4.47
2022-08-23T01:13:43.985Z,5.23
2022-08-23T01:16:16.666Z,3.53
2022-08-23T01:18:46.669Z,4.00
2022-08-23T01:21:20.472Z,4.47
2022-08-23T01:23:52.498Z,4.30
2022-08-23T01:26:22.920Z,4.10
2022-08-23T01:28:51.185Z,5.23
2022-08-23T01:31:20.034Z,4.13
2022-08-23T01:33:52.390Z,4.13
2022-08-23T01:36:21.193Z,3.93
2022-08-23T01:38:50.837Z,3.53
2022-08-23T01:41:19.209Z,4.10
2022-08-23T01:43:47.574Z,4.60
2022-08-23T01:46:20.476Z,3.97
2022-08-23T01:48:50.112Z,4.53
2022-08-23T01:51:20.511Z,3.70
2022-08-23T01:53:50.194Z,3.83
2022-08-23T01:56:27.559Z,4.40
2022-08-23T01:59:08.151Z,3.50
2022-08-23T02:01:36.361Z,4.27
2022-08-23T02:04:05.426Z,4.97
2022-08-23T02:06:34.478Z,3.67
2022-08-23T02:09:05.727Z,3.83
2022-08-23T02:11:45.723Z,4.90
2022-08-23T02:14:18.368Z,5.50
2022-08-23T02:17:02.730Z,4.03
2022-08-23T02:19:33.790Z,4.07
2022-08-23T02:22:01.792Z,4.20
2022-08-23T02:24:31.532Z,4.20
2022-08-23T02:27:03.212Z,4.10
2022-08-23T02:29:31.938Z,3.47
2022-08-23T02:32:01.195Z,4.17
2022-08-23T02:34:29.650Z,4.10
2022-08-23T02:36:57.726Z,3.63
2022-08-23T02:39:25.867Z,4.13
2022-08-23T02:41:55.367Z,4.30
2022-08-23T02:44:23.395Z,4.77
2022-08-23T02:46:51.446Z,4.40
2022-08-23T02:49:19.899Z,4.77
2022-08-23T02:51:47.963Z,4.67
2022-08-23T02:54:15.961Z,4.20
2022-08-23T02:56:43.978Z,3.97
2022-08-23T02:59:13.353Z,4.10
2022-08-23T03:01:42.025Z,4.17
2022-08-23T03:04:12.638Z,4.93
2022-08-23T03:06:40.986Z,4.07
2022-08-23T03:09:09.596Z,4.13
2022-08-23T03:11:38.295Z,4.60
2022-08-23T03:14:06.892Z,4.07
2022-08-23T03:16:36.235Z,4.23
2022-08-23T03:19:04.231Z,4.67
2022-08-23T03:21:32.483Z,3.63
2022-08-23T03:24:00.681Z,5.00
2022-08-23T03:26:28.718Z,4.37
2022-08-23T03:28:56.909Z,3.80
2022-08-23T03:31:25.824Z,4.60
2022-08-23T03:34:00.434Z,4.50
2022-08-23T03:36:28.570Z,4.87
2022-08-23T03:38:56.755Z,3.83
2022-08-23T03:41:25.148Z,4.97
2022-08-23T03:43:53.164Z,6.20
2022-08-23T03:46:23.972Z,4.37
2022-08-23T03:48:52.962Z,4.77
2022-08-23T03:51:24.067Z,4.43
2022-08-23T03:53:53.072Z,4.10
2022-08-23T03:56:25.991Z,4.50
2022-08-23T03:58:55.040Z,4.50
2022-08-23T04:01:28.297Z,4.17
2022-08-23T04:04:00.139Z,4.23
2022-08-23T04:06:32.900Z,5.40
2022-08-23T04:09:01.352Z,4.03
2022-08-23T04:11:29.434Z,3.90
2022-08-23T04:13:57.422Z,4.70
2022-08-23T04:16:25.459Z,4.30
2022-08-23T04:18:53.443Z,4.13
2022-08-23T04:21:24.922Z,4.30
2022-08-23T04:23:54.288Z,3.93
2022-08-23T04:26:23.095Z,4.60
2022-08-23T04:28:54.121Z,4.13
2022-08-23T04:31:22.926Z,3.73
2022-08-23T04:33:52.421Z,4.47
2022-08-23T04:36:23.369Z,3.83
2022-08-23T04:38:51.960Z,4.33
2022-08-23T04:41:38.793Z,4.20
2022-08-23T04:44:06.828Z,4.87
2022-08-23T04:46:34.820Z,4.37
2022-08-23T04:49:03.155Z,4.33
2022-08-23T04:51:31.313Z,4.97
2022-08-23T04:53:59.374Z,3.93
2022-08-23T04:56:29.238Z,4.50
2022-08-23T04:58:57.888Z,4.27
2022-08-23T05:01:26.472Z,5.00
2022-08-23T05:03:55.317Z,4.20
2022-08-23T05:06:23.594Z,4.40
2022-08-23T05:08:51.570Z,5.20
2022-08-23T05:11:20.560Z,4.53
2022-08-23T05:13:50.411Z,4.97
2022-08-23T05:16:19.194Z,4.10
2022-08-23T05:18:47.420Z,3.97
2022-08-23T05:21:17.371Z,4.17
2022-08-23T05:23:45.473Z,3.90
2022-08-23T05:26:19.711Z,4.40
2022-08-23T05:28:50.578Z,4.23
2022-08-23T05:31:22.393Z,4.70
2022-08-23T05:33:51.209Z,4.83
2022-08-23T05:36:20.707Z,5.63
2022-08-23T05:38:49.414Z,4.43
2022-08-23T05:41:18.632Z,4.00
2022-08-23T05:43:50.446Z,4.27
2022-08-23T05:46:20.762Z,4.33
2022-08-23T05:48:51.262Z,4.07
2022-08-23T05:51:21.645Z,4.00
2022-08-23T05:53:51.784Z,4.70
2022-08-23T05:56:22.882Z,4.00
2022-08-23T05:58:59.174Z,4.70
2022-08-23T06:01:30.242Z,3.60
2022-08-23T06:04:00.002Z,4.20
2022-08-23T06:06:37.165Z,3.67
2022-08-23T06:09:07.378Z,4.50
2022-08-23T06:11:36.457Z,4.10
2022-08-23T06:14:09.210Z,4.50
2022-08-23T06:16:40.262Z,4.90
2022-08-23T06:19:09.587Z,5.73
2022-08-23T06:21:39.395Z,4.00
2022-08-23T06:24:08.148Z,4.00
2022-08-23T06:26:38.250Z,4.40
2022-08-23T06:29:09.764Z,5.40
2022-08-23T06:31:48.989Z,3.90
2022-08-23T06:34:20.525Z,3.53
2022-08-23T06:36:56.900Z,3.93
2022-08-23T06:39:28.693Z,4.83
2022-08-23T06:42:13.209Z,4.50
2022-08-23T06:44:50.446Z,4.07
2022-08-23T06:47:21.253Z,4.30
2022-08-23T06:49:57.870Z,4.53
2022-08-23T06:52:29.981Z,4.80
2022-08-23T06:55:02.313Z,3.33
2022-08-23T06:57:32.460Z,4.27
2022-08-23T07:00:03.214Z,3.90
2022-08-23T07:02:32.463Z,4.23
2022-08-23T07:05:02.015Z,3.87
2022-08-23T07:07:39.801Z,4.37
2022-08-23T07:10:15.447Z,4.27
2022-08-23T07:12:44.181Z,3.57
2022-08-23T07:15:14.350Z,4.93
2022-08-23T07:17:42.745Z,3.63
2022-08-23T07:20:11.312Z,4.23
2022-08-23T07:22:40.011Z,3.57
2022-08-23T07:25:08.432Z,4.10
2022-08-23T07:27:36.798Z,3.67
2022-08-23T07:30:06.223Z,3.10
2022-08-23T07:32:35.946Z,3.83
2022-08-23T07:35:04.294Z,3.90
2022-08-23T07:37:32.807Z,3.43
2022-08-23T07:40:01.146Z,3.67
2022-08-23T07:42:29.645Z,3.30
2022-08-23T07:44:59.020Z,2.97
2022-08-23T07:47:28.736Z,3.87
2022-08-23T07:49:58.646Z,3.43
2022-08-23T07:52:27.004Z,3.20
2022-08-23T07:54:55.277Z,3.10
2022-08-23T07:57:23.821Z,3.40
2022-08-23T07:59:52.167Z,3.00
2022-08-23T08:02:20.453Z,3.07
2022-08-23T08:04:48.766Z,2.60
2022-08-23T08:07:20.707Z,3.17
2022-08-23T08:09:49.419Z,2.80
2022-08-23T08:12:17.911Z,3.37
2022-08-23T08:14:48.158Z,2.80
2022-08-23T08:17:16.941Z,3.00
2022-08-23T08:19:45.678Z,2.60
2022-08-23T08:22:14.038Z,3.63
2022-08-23T08:24:43.994Z,3.13
2022-08-23T08:27:12.345Z,2.53
2022-08-23T08:29:41.948Z,2.80
2022-08-23T08:32:13.857Z,2.83
2022-08-23T08:34:42.661Z,3.00
2022-08-23T08:37:11.255Z,2.70
2022-08-23T08:39:45.855Z,2.67
2022-08-23T08:42:31.602Z,2.30
2022-08-23T08:45:01.598Z,2.33
2022-08-23T08:47:35.246Z,2.53
2022-08-23T08:50:09.730Z,2.40
2022-08-23T08:52:39.884Z,2.20
2022-08-23T08:55:10.664Z,2.17
2022-08-23T08:57:42.063Z,2.40
2022-08-23T09:00:13.315Z,2.30
2022-08-23T09:02:41.959Z,2.40
2022-08-23T09:05:12.448Z,2.10
2022-08-23T09:07:46.040Z,2.10
2022-08-23T09:10:32.131Z,1.70
2022-08-23T09:13:05.350Z,2.47
2022-08-23T09:15:38.265Z,2.03
2022-08-23T09:18:09.939Z,1.90
2022-08-23T09:20:39.360Z,2.20
2022-08-23T09:23:10.903Z,2.10
2022-08-23T09:25:39.381Z,1.73
2022-08-23T09:28:09.340Z,2.00
2022-08-23T09:30:49.125Z,1.77
2022-08-23T09:33:18.664Z,2.73
2022-08-23T09:35:54.295Z,2.10
2022-08-23T09:38:23.143Z,2.03
2022-08-23T09:40:52.648Z,2.00
2022-08-23T09:43:23.634Z,2.60
2022-08-23T09:45:57.338Z,2.60
2022-08-23T09:48:36.798Z,2.13
2022-08-23T09:51:07.236Z,1.77
2022-08-23T09:53:41.096Z,2.33
2022-08-23T09:56:13.702Z,2.10
2022-08-23T09:58:44.151Z,2.07
2022-08-23T10:01:14.111Z,1.67
2022-08-23T10:03:43.446Z,2.30
2022-08-23T10:06:15.507Z,2.17
2022-08-23T10:08:53.009Z,1.80
2022-08-23T10:11:23.966Z,2.37
2022-08-23T10:13:54.105Z,2.17
2022-08-23T10:16:29.223Z,1.77
2022-08-23T10:19:01.473Z,2.10
2022-08-23T10:21:35.739Z,1.60
2022-08-23T10:24:16.039Z,1.97
2022-08-23T10:26:48.304Z,2.17
2022-08-23T10:29:39.014Z,2.20
2022-08-23T10:32:13.320Z,1.90
2022-08-23T10:34:48.462Z,1.70
2022-08-23T10:37:28.585Z,1.73
2022-08-23T10:40:03.994Z,1.90
2022-08-23T10:42:37.919Z,1.83
2022-08-23T10:45:13.009Z,1.93
2022-08-23T10:47:47.533Z,2.00
2022-08-23T10:50:20.306Z,1.80
2022-08-23T10:52:53.289Z,1.67
2022-08-23T10:55:35.682Z,1.93
2022-08-23T10:58:05.741Z,2.03
2022-08-23T11:00:37.143Z,2.40
2022-08-23T11:03:11.373Z,1.70
2022-08-23T11:05:40.655Z,1.93
2022-08-23T11:08:11.704Z,1.90
2022-08-23T11:10:55.842Z,1.80
2022-08-23T11:13:25.992Z,2.20
2022-08-23T11:16:00.987Z,1.80
2022-08-23T11:18:45.647Z,2.00
2022-08-23T11:21:33.349Z,2.27
2022-08-23T11:24:18.323Z,1.73
2022-08-23T11:27:07.790Z,1.77
2022-08-23T11:29:41.470Z,1.60
2022-08-23T11:32:22.373Z,1.87
2022-08-23T11:34:53.623Z,2.17
2022-08-23T11:37:26.491Z,1.57
2022-08-23T11:40:07.510Z,1.90
2022-08-23T11:42:47.390Z,1.83
2022-08-23T11:45:33.302Z,2.00
2022-08-23T11:48:14.334Z,2.03
2022-08-23T11:50:58.102Z,1.97
2022-08-23T11:53:36.119Z,2.10
2022-08-23T11:56:14.509Z,1.73
2022-08-23T11:58:57.792Z,1.40
2022-08-23T12:01:32.459Z,1.57
2022-08-23T12:04:09.706Z,1.43
2022-08-23T12:06:43.408Z,1.50
2022-08-23T12:09:37.791Z,1.83
2022-08-23T12:12:13.292Z,1.40
2022-08-23T12:14:51.884Z,1.67
2022-08-23T12:17:51.272Z,1.33
2022-08-23T12:20:27.810Z,1.60
2022-08-23T12:22:59.413Z,1.20
2022-08-23T12:25:29.731Z,1.80
2022-08-23T12:28:01.621Z,2.33
2022-08-23T12:30:33.926Z,1.70
2022-08-23T12:33:07.356Z,1.87
2022-08-23T12:35:41.910Z,1.43
2022-08-23T12:38:16.479Z,1.40
2022-08-23T12:40:46.102Z,1.30
2022-08-23T12:43:22.502Z,1.50
2022-08-23T12:45:52.477Z,1.60
2022-08-23T12:48:23.025Z,1.30
2022-08-23T12:50:56.416Z,1.63
2022-08-23T12:53:28.693Z,1.57
2022-08-23T12:56:01.819Z,1.50
2022-08-23T12:58:33.558Z,1.83
2022-08-23T13:01:04.319Z,1.20
2022-08-23T13:03:34.930Z,1.40
2022-08-23T13:06:07.914Z,1.60
2022-08-23T13:08:41.262Z,1.67
2022-08-23T13:11:10.477Z,2.00
2022-08-23T13:13:39.606Z,1.90
2022-08-23T13:16:26.854Z,2.40
2022-08-23T13:18:56.168Z,1.70
2022-08-23T13:21:34.838Z,1.57
2022-08-23T13:24:23.341Z,1.50
2022-08-23T13:27:12.491Z,1.50
2022-08-23T13:29:49.978Z,1.60
2022-08-23T13:32:30.074Z,1.23
2022-08-23T13:35:13.363Z,1.50
2022-08-23T13:37:46.616Z,1.50
2022-08-23T13:40:21.509Z,1.60
2022-08-23T13:42:56.307Z,2.00
2022-08-23T13:45:26.871Z,1.40
2022-08-23T13:47:57.460Z,1.43
2022-08-23T13:50:27.243Z,1.40
2022-08-23T13:53:13.854Z,1.30
2022-08-23T13:55:45.484Z,1.50
2022-08-23T13:58:14.661Z,1.50
2022-08-23T14:00:45.902Z,1.40
2022-08-23T14:03:24.091Z,1.87
2022-08-23T14:05:52.863Z,1.37
2022-08-23T14:08:22.963Z,1.40
2022-08-23T14:10:51.524Z,1.50
2022-08-23T14:13:21.546Z,1.60
2022-08-23T14:15:58.500Z,1.80
2022-08-23T14:19:15.085Z,1.40
2022-08-23T14:21:26.640Z,1.53
2022-08-23T14:23:56.373Z,1.40
2022-08-23T14:26:24.807Z,1.33
2022-08-23T14:28:54.257Z,1.47
2022-08-23T14:31:24.014Z,1.40
2022-08-23T14:33:52.383Z,1.63
2022-08-23T14:36:21.595Z,1.50
2022-08-23T14:38:53.639Z,1.40
2022-08-23T14:41:24.275Z,1.33
2022-08-23T14:43:53.955Z,1.50
2022-08-23T14:46:23.122Z,0.97
2022-08-23T14:48:51.767Z,1.40
2022-08-23T14:51:25.449Z,1.80
2022-08-23T14:53:54.335Z,1.50
2022-08-23T14:56:24.596Z,1.33
2022-08-23T14:58:52.979Z,1.43
2022-08-23T15:01:21.893Z,1.57
2022-08-23T15:03:50.666Z,1.40
2022-08-23T15:06:20.398Z,1.50
2022-08-23T15:08:48.914Z,1.47
2022-08-23T15:14:06.923Z,1.20
2022-08-23T15:16:35.472Z,1.57
2022-08-23T15:19:03.863Z,1.67
2022-08-23T15:21:32.197Z,1.40
2022-08-23T15:24:00.514Z,1.33
2022-08-23T15:26:31.108Z,1.30
2022-08-23T15:28:59.696Z,1.53
2022-08-23T15:31:29.899Z,1.67
2022-08-23T15:33:58.441Z,2.40
2022-08-23T15:36:27.945Z,1.23
2022-08-23T15:38:56.325Z,1.17
2022-08-23T15:41:24.697Z,1.73
2022-08-23T15:43:53.084Z,1.30
2022-08-23T15:46:24.319Z,1.30
2022-08-23T15:48:58.404Z,1.73
2022-08-23T15:51:28.937Z,2.43
2022-08-23T15:53:57.660Z,1.70
2022-08-23T15:56:59.543Z,1.60
2022-08-23T15:59:37.243Z,1.80
2022-08-23T16:05:11.486Z,1.90
2022-08-23T16:11:38.956Z,1.53
2022-08-23T16:14:12.120Z,1.90
2022-08-23T16:17:19.125Z,1.90
2022-08-23T16:20:24.967Z,2.13
2022-08-23T16:22:54.403Z,1.63
2022-08-23T16:25:22.525Z,1.77
2022-08-23T16:27:50.790Z,2.40
2022-08-23T16:30:19.130Z,2.40
2022-08-23T16:32:47.315Z,2.10
2022-08-23T16:35:15.846Z,1.90
2022-08-23T16:37:43.918Z,1.87
2022-08-23T16:40:14.285Z,2.13
2022-08-23T16:42:42.633Z,2.20
2022-08-23T16:45:12.007Z,1.90
2022-08-23T16:47:43.389Z,2.90
2022-08-23T16:50:14.140Z,1.90
2022-08-23T16:52:42.245Z,2.00
2022-08-23T16:55:14.297Z,2.17
2022-08-23T16:57:42.739Z,1.80
2022-08-23T17:00:13.311Z,2.30
2022-08-23T17:02:42.114Z,2.60
2022-08-23T17:05:12.542Z,2.13
2022-08-23T17:07:40.680Z,2.03
2022-08-23T17:10:11.271Z,1.80
2022-08-23T17:12:46.863Z,1.90
2022-08-23T17:15:17.957Z,2.37
2022-08-23T17:17:48.345Z,2.17
2022-08-23T17:20:17.801Z,1.90
2022-08-23T17:22:47.251Z,2.30
2022-08-23T17:25:16.247Z,1.93
2022-08-23T17:27:46.604Z,1.97
2022-08-23T17:30:17.454Z,2.00
2022-08-23T17:32:47.656Z,2.53
2022-08-23T17:35:22.674Z,1.83
2022-08-23T17:37:51.084Z,2.00
2022-08-23T17:40:22.877Z,2.37
2022-08-23T17:42:52.376Z,2.23
2022-08-23T17:45:20.683Z,2.23
2022-08-23T17:47:49.692Z,2.20
2022-08-23T17:50:19.380Z,2.07
2022-08-23T17:52:47.551Z,2.87
2022-08-23T17:55:18.460Z,2.33
2022-08-23T17:57:48.377Z,2.60
2022-08-23T18:00:20.659Z,2.17
2022-08-23T18:02:49.262Z,2.10
2022-08-23T18:05:17.647Z,2.20
2022-08-23T18:07:46.045Z,2.63
2022-08-23T18:10:14.353Z,2.17
2022-08-23T18:12:43.499Z,2.00
2022-08-23T18:15:12.567Z,2.93
2022-08-23T18:17:42.107Z,2.37
2022-08-23T18:20:11.747Z,2.20
2022-08-23T18:22:40.228Z,2.50
2022-08-23T18:25:10.787Z,2.40
2022-08-23T18:27:56.019Z,3.37
2022-08-23T18:30:24.521Z,2.43
2022-08-23T18:32:54.198Z,2.20
2022-08-23T18:35:25.758Z,2.87
2022-08-23T18:37:54.421Z,2.80
2022-08-23T18:40:22.943Z,2.80
2022-08-23T18:42:51.158Z,2.30
2022-08-23T18:45:19.396Z,2.43
2022-08-23T18:47:49.937Z,2.33
2022-08-23T18:50:19.810Z,2.43
2022-08-23T18:52:47.834Z,2.67
2022-08-23T18:55:17.503Z,2.47
2022-08-23T18:57:45.601Z,2.90
2022-08-23T19:00:14.867Z,2.50
2022-08-23T19:02:42.915Z,3.03
2022-08-23T19:05:11.092Z,2.30
2022-08-23T19:07:40.694Z,3.33
2022-08-23T19:10:09.568Z,2.77
2022-08-23T19:12:37.689Z,2.67
2022-08-23T19:15:06.893Z,2.73
2022-08-23T19:17:34.917Z,3.20
2022-08-23T19:20:03.163Z,3.70
2022-08-23T19:22:31.281Z,2.73
2022-08-23T19:25:01.013Z,2.90
2022-08-23T19:27:29.030Z,3.00
2022-08-23T19:29:57.173Z,2.93
2022-08-23T19:32:26.650Z,3.30
2022-08-23T19:34:54.771Z,3.20
2022-08-23T19:37:23.334Z,3.20
2022-08-23T19:39:52.020Z,3.07
2022-08-23T19:42:21.603Z,2.77
2022-08-23T19:44:49.763Z,3.20
2022-08-23T19:47:20.297Z,3.30
2022-08-23T19:49:49.740Z,3.30
2022-08-23T19:52:18.014Z,3.10
2022-08-23T19:54:46.010Z,3.10
2022-08-23T19:57:14.138Z,2.90
2022-08-23T19:59:43.952Z,3.03
2022-08-23T20:02:13.965Z,3.57
2022-08-23T20:04:42.077Z,3.43
2022-08-23T20:07:10.480Z,3.03
2022-08-23T20:09:38.616Z,3.27
2022-08-23T20:12:07.564Z,3.23
2022-08-23T20:14:35.700Z,3.30
2022-08-23T20:17:07.451Z,3.23
2022-08-23T20:19:36.132Z,3.00
2022-08-23T20:22:18.714Z,3.33
2022-08-23T20:24:52.195Z,2.90
2022-08-23T20:27:24.157Z,3.00
2022-08-23T20:29:59.082Z,2.90
2022-08-23T20:32:28.744Z,2.80
2022-08-23T20:34:56.817Z,3.20
2022-08-23T20:37:25.333Z,3.40
2022-08-23T20:39:53.544Z,3.33
2022-08-23T20:42:21.648Z,3.60
2022-08-23T20:44:49.745Z,3.13
2022-08-23T20:47:18.026Z,3.40
2022-08-23T20:49:47.785Z,4.00
2022-08-23T20:52:16.641Z,2.93
2022-08-23T20:54:44.872Z,3.60
2022-08-23T20:57:13.075Z,3.20
2022-08-23T20:59:44.675Z,3.57
2022-08-23T21:02:13.696Z,3.70
2022-08-23T21:04:41.854Z,3.73
2022-08-23T21:07:11.284Z,3.40
2022-08-23T21:09:39.459Z,3.17
2022-08-23T21:12:07.938Z,4.07
2022-08-23T21:14:36.096Z,3.53
2022-08-23T21:17:04.222Z,3.60
2022-08-23T21:19:32.356Z,3.80
2022-08-23T21:22:01.007Z,3.23
2022-08-23T21:24:30.453Z,3.50
2022-08-23T21:26:59.092Z,3.73
2022-08-23T21:29:27.156Z,3.60
2022-08-23T21:31:55.177Z,3.40
2022-08-23T21:34:23.357Z,3.40
2022-08-23T21:36:52.324Z,3.57
2022-08-23T21:39:20.907Z,3.30
2022-08-23T21:41:50.966Z,3.60
2022-08-23T21:44:21.227Z,3.90
2022-08-23T21:46:49.470Z,3.20
2022-08-23T21:49:18.297Z,4.40
2022-08-23T21:51:46.841Z,3.73
2022-08-23T21:54:15.933Z,3.13
2022-08-23T21:56:45.749Z,4.03
2022-08-23T21:59:17.879Z,3.43
2022-08-23T22:01:46.976Z,3.73
2022-08-23T22:04:16.272Z,3.57
2022-08-23T22:06:47.198Z,4.00
2022-08-23T22:09:18.223Z,3.87
2022-08-23T22:11:48.034Z,4.10
2022-08-23T22:14:21.397Z,4.20
2022-08-23T22:16:51.612Z,4.33
2022-08-23T22:19:23.662Z,3.80
2022-08-23T22:21:52.733Z,3.50
2022-08-23T22:24:25.480Z,3.77
2022-08-23T22:26:54.526Z,3.40
2022-08-23T22:29:24.604Z,3.87
2022-08-23T22:31:52.638Z,3.37
2022-08-23T22:34:21.015Z,3.40
2022-08-23T22:36:52.441Z,4.07
2022-08-23T22:39:21.330Z,3.40
2022-08-23T22:41:49.895Z,3.87
2022-08-23T22:44:18.397Z,4.30
2022-08-23T22:46:48.120Z,4.63
2022-08-23T22:49:16.346Z,4.07
2022-08-23T22:51:44.488Z,3.40
2022-08-23T22:54:14.324Z,4.20
2022-08-23T22:56:45.146Z,4.27
2022-08-23T22:59:13.980Z,3.50
2022-08-23T23:01:47.701Z,4.20
2022-08-23T23:04:20.455Z,4.50
2022-08-23T23:06:48.998Z,4.57
2022-08-23T23:09:17.718Z,4.10
2022-08-23T23:11:46.713Z,4.50
2022-08-23T23:14:17.101Z,3.60
2022-08-23T23:28:08.818Z,5.03
2022-08-23T23:30:37.370Z,4.20
2022-08-23T23:33:06.009Z,4.50
2022-08-23T23:35:35.163Z,5.10
2022-08-23T23:38:03.933Z,4.43
2022-08-23T23:40:32.103Z,4.70
2022-08-23T23:43:00.130Z,4.10
2022-08-23T23:45:29.622Z,4.00
2022-08-23T23:47:58.128Z,3.93
2022-08-23T23:50:26.938Z,3.87
2022-08-23T23:52:55.449Z,4.80
2022-08-23T23:55:23.780Z,4.60
2022-08-23T23:57:53.256Z,4.80
